createdAt,value
2018-07-28T00:01:45.392Z,21.10
2018-07-28T00:04:20.594Z,21.10
2018-07-28T00:06:55.615Z,21.10
2018-07-28T00:09:31.516Z,21.10
2018-07-28T00:12:06.863Z,21.10
2018-07-28T00:14:41.991Z,21.00
2018-07-28T00:17:17.247Z,20.90
2018-07-28T00:19:52.398Z,20.90
2018-07-28T00:22:27.637Z,20.90
2018-07-28T00:25:02.674Z,20.80
2018-07-28T00:27:37.882Z,20.70
2018-07-28T00:30:13.635Z,20.60
2018-07-28T00:32:48.732Z,20.50
2018-07-28T00:35:23.968Z,20.50
2018-07-28T00:37:59.267Z,20.50
2018-07-28T00:40:34.461Z,20.50
2018-07-28T00:43:09.675Z,20.50
2018-07-28T00:45:44.830Z,20.40
2018-07-28T00:48:32.507Z,20.40
2018-07-28T00:54:11.944Z,20.30
2018-07-28T00:56:47.061Z,20.20
2018-07-28T00:59:22.316Z,20.20
2018-07-28T01:01:57.609Z,20.10
2018-07-28T01:04:32.669Z,20.10
2018-07-28T01:07:07.754Z,20.00
2018-07-28T01:09:43.037Z,20.00
2018-07-28T01:12:18.318Z,20.00
2018-07-28T01:14:53.472Z,19.90
2018-07-28T01:17:28.692Z,19.90
2018-07-28T01:20:04.023Z,19.90
2018-07-28T01:22:40.066Z,19.90
2018-07-28T01:25:15.371Z,19.90
2018-07-28T01:27:50.485Z,19.80
2018-07-28T01:30:29.786Z,19.70
2018-07-28T01:33:05.111Z,19.70
2018-07-28T01:35:40.244Z,19.70
2018-07-28T01:38:15.467Z,19.70
2018-07-28T01:40:50.644Z,19.70
2018-07-28T01:43:25.806Z,19.70
2018-07-28T01:46:00.851Z,19.70
2018-07-28T01:48:36.134Z,19.60
2018-07-28T01:51:11.135Z,19.60
2018-07-28T01:53:46.218Z,19.50
2018-07-28T01:56:21.349Z,19.50
2018-07-28T01:58:56.675Z,19.50
2018-07-28T02:01:31.799Z,19.50
2018-07-28T02:04:06.915Z,19.50
2018-07-28T02:06:41.958Z,19.40
2018-07-28T02:09:17.115Z,19.40
2018-07-28T02:11:52.184Z,19.40
2018-07-28T02:14:27.359Z,19.40
2018-07-28T02:17:02.403Z,19.30
2018-07-28T02:19:37.683Z,19.30
2018-07-28T02:22:12.743Z,19.30
2018-07-28T02:24:47.925Z,19.20
2018-07-28T02:27:23.371Z,19.00
2018-07-28T02:29:58.363Z,18.90
2018-07-28T02:32:33.638Z,18.90
2018-07-28T02:35:09.079Z,18.90
2018-07-28T02:37:44.023Z,19.00
2018-07-28T02:40:19.185Z,19.00
2018-07-28T02:42:54.392Z,19.10
2018-07-28T02:45:29.658Z,19.00
2018-07-28T02:48:04.761Z,19.00
2018-07-28T02:50:39.808Z,18.90
2018-07-28T02:53:15.011Z,18.80
2018-07-28T02:55:50.303Z,18.80
2018-07-28T02:58:25.372Z,18.80
2018-07-28T03:01:00.428Z,18.80
2018-07-28T03:03:35.556Z,18.70
2018-07-28T03:06:11.621Z,18.70
2018-07-28T03:08:46.975Z,18.60
2018-07-28T03:11:22.184Z,18.60
2018-07-28T03:13:57.295Z,18.60
2018-07-28T03:16:32.344Z,18.60
2018-07-28T03:19:07.705Z,18.60
2018-07-28T03:21:42.855Z,18.60
2018-07-28T03:24:18.007Z,18.60
2018-07-28T03:26:53.035Z,18.60
2018-07-28T03:29:28.219Z,18.50
2018-07-28T03:32:03.361Z,18.50
2018-07-28T03:34:38.486Z,18.50
2018-07-28T03:37:13.674Z,18.50
2018-07-28T03:39:48.897Z,18.50
2018-07-28T03:42:24.090Z,18.50
2018-07-28T03:44:59.166Z,18.50
2018-07-28T03:47:34.306Z,18.40
2018-07-28T03:50:09.651Z,18.40
2018-07-28T03:52:44.693Z,18.40
2018-07-28T03:55:19.715Z,18.50
2018-07-28T03:57:55.357Z,18.50
2018-07-28T04:00:30.483Z,18.50
2018-07-28T04:03:05.647Z,18.50
2018-07-28T04:05:40.692Z,18.50
2018-07-28T04:08:15.747Z,18.50
2018-07-28T04:10:50.934Z,18.40
2018-07-28T04:13:26.007Z,18.40
2018-07-28T04:16:01.190Z,18.40
2018-07-28T04:18:36.438Z,18.40
2018-07-28T04:21:11.694Z,18.50
2018-07-28T04:23:46.840Z,18.50
2018-07-28T04:26:22.086Z,18.50
2018-07-28T04:28:57.175Z,18.50
2018-07-28T04:31:32.402Z,18.60
2018-07-28T04:34:07.623Z,18.70
2018-07-28T04:36:42.705Z,18.70
2018-07-28T04:39:17.924Z,18.80
2018-07-28T04:41:52.996Z,18.80
2018-07-28T04:44:28.186Z,18.90
2018-07-28T04:47:03.186Z,19.00
2018-07-28T04:49:38.368Z,19.00
2018-07-28T04:52:13.477Z,19.10
2018-07-28T04:54:48.703Z,19.20
2018-07-28T04:57:24.427Z,19.30
2018-07-28T04:59:59.527Z,19.30
2018-07-28T05:02:34.734Z,19.40
2018-07-28T05:05:09.883Z,19.40
2018-07-28T05:07:45.048Z,19.60
2018-07-28T05:10:20.259Z,19.70
2018-07-28T05:12:55.513Z,19.80
2018-07-28T05:15:30.707Z,19.80
2018-07-28T05:18:05.903Z,19.90
2018-07-28T05:20:41.112Z,19.80
2018-07-28T05:23:16.320Z,19.90
2018-07-28T05:25:51.415Z,19.90
2018-07-28T05:28:26.478Z,20.00
2018-07-28T05:31:01.646Z,20.20
2018-07-28T05:33:36.808Z,20.30
2018-07-28T05:36:12.117Z,20.40
2018-07-28T05:38:47.338Z,20.50
2018-07-28T05:41:22.231Z,20.60
2018-07-28T05:43:57.642Z,20.70
2018-07-28T05:46:32.660Z,20.70
2018-07-28T05:49:07.686Z,20.90
2018-07-28T05:51:42.846Z,20.90
2018-07-28T05:54:17.967Z,21.00
2018-07-28T05:56:53.182Z,21.10
2018-07-28T05:59:28.209Z,21.10
2018-07-28T06:02:03.265Z,21.20
2018-07-28T06:04:38.426Z,21.30
2018-07-28T06:07:13.519Z,21.40
2018-07-28T06:09:48.830Z,21.60
2018-07-28T06:12:23.864Z,21.80
2018-07-28T06:14:58.953Z,22.00
2018-07-28T06:17:34.099Z,22.20
2018-07-28T06:20:09.571Z,22.20
2018-07-28T06:22:44.795Z,22.30
2018-07-28T06:25:20.096Z,22.20
2018-07-28T06:27:55.302Z,22.30
2018-07-28T06:30:30.459Z,22.30
2018-07-28T06:33:05.684Z,22.30
2018-07-28T06:35:41.475Z,22.40
2018-07-28T06:38:16.611Z,22.40
2018-07-28T06:40:51.888Z,22.50
2018-07-28T06:43:26.899Z,22.60
2018-07-28T06:46:01.911Z,22.70
2018-07-28T06:48:37.125Z,22.70
2018-07-28T06:51:12.319Z,22.80
2018-07-28T06:53:47.563Z,22.90
2018-07-28T06:56:22.713Z,22.90
2018-07-28T06:58:57.770Z,23.00
2018-07-28T07:01:33.096Z,23.10
2018-07-28T07:04:08.219Z,23.20
2018-07-28T07:06:43.399Z,23.20
2018-07-28T07:09:18.437Z,23.40
2018-07-28T07:11:53.750Z,23.40
2018-07-28T07:14:28.789Z,23.50
2018-07-28T07:17:03.959Z,23.60
2018-07-28T07:19:39.104Z,23.70
2018-07-28T07:24:49.133Z,23.80
2018-07-28T07:27:24.467Z,23.90
2018-07-28T07:29:59.615Z,24.00
2018-07-28T07:32:34.846Z,24.00
2018-07-28T07:35:09.874Z,24.10
2018-07-28T07:37:45.189Z,24.20
2018-07-28T07:40:20.427Z,24.20
2018-07-28T07:42:55.510Z,24.30
2018-07-28T07:45:30.661Z,24.40
2018-07-28T07:48:05.852Z,24.40
2018-07-28T07:50:41.102Z,24.50
2018-07-28T07:53:16.282Z,24.60
2018-07-28T07:55:51.298Z,24.60
2018-07-28T07:58:26.434Z,24.70
2018-07-28T08:01:01.471Z,24.70
2018-07-28T08:03:36.452Z,24.80
2018-07-28T08:06:11.455Z,24.90
2018-07-28T08:08:46.702Z,24.90
2018-07-28T08:11:23.173Z,24.90
2018-07-28T08:13:58.261Z,25.00
2018-07-28T08:16:33.330Z,25.10
2018-07-28T08:19:08.374Z,25.20
2018-07-28T08:21:43.573Z,25.30
2018-07-28T08:24:18.755Z,25.40
2018-07-28T08:26:53.805Z,25.40
2018-07-28T08:29:28.925Z,25.50
2018-07-28T08:32:04.123Z,25.60
2018-07-28T08:34:39.387Z,25.70
2018-07-28T08:37:14.564Z,25.70
2018-07-28T08:39:49.740Z,25.80
2018-07-28T08:42:24.890Z,25.90
2018-07-28T08:45:00.084Z,26.00
2018-07-28T08:47:35.301Z,26.10
2018-07-28T08:50:10.467Z,26.20
2018-07-28T08:52:45.756Z,26.30
2018-07-28T08:55:21.003Z,26.50
2018-07-28T08:57:56.134Z,26.70
2018-07-28T09:00:31.470Z,26.90
2018-07-28T09:03:06.699Z,26.90
2018-07-28T09:05:41.798Z,27.00
2018-07-28T09:08:16.883Z,27.00
2018-07-28T09:10:51.973Z,27.00
2018-07-28T09:13:26.987Z,27.00
2018-07-28T09:16:02.034Z,27.00
2018-07-28T09:18:37.126Z,27.10
2018-07-28T09:21:12.363Z,27.20
2018-07-28T09:23:47.606Z,27.30
2018-07-28T09:26:22.679Z,27.40
2018-07-28T09:28:57.735Z,27.60
2018-07-28T09:31:32.690Z,27.70
2018-07-28T09:34:07.868Z,27.90
2018-07-28T09:36:43.159Z,27.80
2018-07-28T09:39:18.271Z,27.80
2018-07-28T09:44:28.072Z,27.70
2018-07-28T09:47:03.341Z,27.70
2018-07-28T09:49:38.263Z,27.70
2018-07-28T09:52:13.276Z,27.60
2018-07-28T09:54:48.466Z,27.70
2018-07-28T09:57:23.700Z,27.80
2018-07-28T09:59:58.847Z,28.00
2018-07-28T10:02:34.050Z,28.20
2018-07-28T10:05:09.076Z,28.40
2018-07-28T10:07:44.251Z,28.70
2018-07-28T10:10:19.353Z,28.70
2018-07-28T10:12:54.642Z,28.70
2018-07-28T10:15:29.919Z,28.70
2018-07-28T10:18:05.119Z,28.70
2018-07-28T10:20:40.269Z,28.80
2018-07-28T10:23:15.512Z,28.80
2018-07-28T10:25:50.653Z,28.70
2018-07-28T10:28:25.672Z,28.50
2018-07-28T10:31:00.847Z,28.20
2018-07-28T10:33:36.192Z,28.00
2018-07-28T10:36:11.328Z,27.80
2018-07-28T10:41:21.476Z,27.50
2018-07-28T10:43:56.567Z,27.50
2018-07-28T10:46:31.953Z,27.60
2018-07-28T10:49:07.265Z,27.70
2018-07-28T10:51:42.659Z,27.80
2018-07-28T10:54:17.685Z,28.00
2018-07-28T10:56:52.947Z,28.00
2018-07-28T10:59:28.134Z,27.70
2018-07-28T11:02:03.226Z,27.70
2018-07-28T11:04:38.367Z,27.70
2018-07-28T11:07:15.976Z,27.70
2018-07-28T11:09:51.272Z,27.80
2018-07-28T11:12:26.407Z,27.60
2018-07-28T11:15:01.725Z,27.60
2018-07-28T11:17:37.562Z,27.60
2018-07-28T11:20:12.765Z,27.70
2018-07-28T11:22:47.956Z,27.80
2018-07-28T11:25:23.095Z,27.90
2018-07-28T11:27:58.203Z,28.00
2018-07-28T11:30:33.378Z,28.10
2018-07-28T11:33:20.221Z,28.30
2018-07-28T11:36:07.144Z,28.20
2018-07-28T11:38:53.395Z,28.20
2018-07-28T11:41:39.890Z,28.00
2018-07-28T11:44:26.339Z,28.00
2018-07-28T11:47:01.391Z,28.10
2018-07-28T11:49:36.551Z,28.20
2018-07-28T11:52:11.988Z,28.10
2018-07-28T11:54:46.982Z,28.20
2018-07-28T11:57:22.051Z,28.20
2018-07-28T11:59:57.436Z,28.30
2018-07-28T12:02:32.754Z,28.50
2018-07-28T12:05:08.527Z,28.50
2018-07-28T12:07:43.669Z,28.60
2018-07-28T12:10:18.843Z,28.60
2018-07-28T12:12:53.919Z,28.80
2018-07-28T12:15:29.172Z,28.80
2018-07-28T12:18:04.500Z,29.00
2018-07-28T12:20:39.722Z,29.20
2018-07-28T12:23:14.761Z,29.40
2018-07-28T12:25:49.933Z,29.40
2018-07-28T12:28:24.980Z,29.40
2018-07-28T12:31:00.263Z,29.70
2018-07-28T12:33:35.444Z,29.70
2018-07-28T12:36:10.492Z,29.50
2018-07-28T12:38:45.554Z,29.30
2018-07-28T12:41:20.847Z,29.10
2018-07-28T12:43:56.034Z,29.00
2018-07-28T12:46:31.745Z,29.10
2018-07-28T12:49:06.963Z,29.10
2018-07-28T12:51:42.249Z,29.00
2018-07-28T12:54:17.684Z,29.00
2018-07-28T12:56:52.838Z,29.20
2018-07-28T12:59:28.011Z,29.50
2018-07-28T13:02:03.290Z,29.80
2018-07-28T13:04:38.470Z,29.90
2018-07-28T13:07:13.708Z,30.10
2018-07-28T13:09:48.850Z,30.40
2018-07-28T13:12:24.116Z,30.50
2018-07-28T13:17:34.159Z,30.50
2018-07-28T13:20:09.399Z,30.60
2018-07-28T13:22:44.478Z,30.60
2018-07-28T13:25:19.603Z,30.70
2018-07-28T13:27:54.776Z,30.60
2018-07-28T13:30:30.057Z,30.20
2018-07-28T13:33:05.322Z,29.80
2018-07-28T13:35:40.346Z,29.30
2018-07-28T13:38:15.512Z,29.00
2018-07-28T13:40:50.641Z,28.70
2018-07-28T13:43:25.921Z,28.60
2018-07-28T13:46:01.103Z,28.60
2018-07-28T13:48:36.203Z,28.80
2018-07-28T13:51:11.221Z,29.10
2018-07-28T13:53:46.399Z,29.70
2018-07-28T13:56:21.788Z,30.10
2018-07-28T13:58:57.011Z,30.50
2018-07-28T14:01:32.446Z,30.70
2018-07-28T14:04:07.503Z,30.90
2018-07-28T14:06:42.582Z,30.30
2018-07-28T14:09:17.758Z,30.10
2018-07-28T14:11:52.694Z,30.20
2018-07-28T14:14:27.819Z,30.40
2018-07-28T14:17:03.154Z,30.40
2018-07-28T14:19:38.312Z,30.50
2018-07-28T14:22:13.716Z,30.50
2018-07-28T14:24:48.916Z,30.50
2018-07-28T14:27:25.344Z,30.40
2018-07-28T14:30:00.525Z,30.30
2018-07-28T14:32:35.727Z,30.60
2018-07-28T14:35:10.990Z,30.40
2018-07-28T14:37:46.148Z,30.30
2018-07-28T14:40:21.409Z,30.50
2018-07-28T14:42:56.467Z,30.70
2018-07-28T14:45:31.519Z,30.60
2018-07-28T14:48:06.776Z,30.00
2018-07-28T14:50:42.039Z,29.70
2018-07-28T14:53:17.249Z,29.50
2018-07-28T14:55:52.422Z,29.20
2018-07-28T14:58:27.644Z,29.30
2018-07-28T15:01:03.049Z,30.00
2018-07-28T15:03:38.112Z,30.50
2018-07-28T15:06:13.348Z,30.70
2018-07-28T15:08:48.470Z,30.70
2018-07-28T15:11:23.747Z,30.90
2018-07-28T15:13:59.800Z,31.70
2018-07-28T15:16:34.946Z,32.70
2018-07-28T15:19:10.118Z,32.80
2018-07-28T15:21:45.143Z,32.50
2018-07-28T15:24:20.246Z,31.90
2018-07-28T15:26:55.571Z,31.60
2018-07-28T15:29:30.784Z,31.10
2018-07-28T15:32:06.000Z,30.60
2018-07-28T15:34:41.058Z,29.90
2018-07-28T15:37:16.285Z,29.40
2018-07-28T15:39:51.910Z,28.90
2018-07-28T15:42:27.094Z,28.70
2018-07-28T15:45:02.148Z,28.70
2018-07-28T15:47:37.315Z,28.70
2018-07-28T15:50:12.479Z,28.70
2018-07-28T15:52:47.711Z,28.40
2018-07-28T15:55:22.891Z,28.00
2018-07-28T15:57:58.208Z,27.70
2018-07-28T16:00:33.438Z,27.50
2018-07-28T16:03:08.726Z,27.40
2018-07-28T16:05:43.961Z,27.30
2018-07-28T16:08:19.203Z,27.20
2018-07-28T16:10:54.326Z,27.10
2018-07-28T16:13:29.375Z,27.00
2018-07-28T16:16:04.399Z,27.00
2018-07-28T16:18:40.249Z,27.10
2018-07-28T16:21:15.334Z,26.90
2018-07-28T16:23:50.691Z,26.80
2018-07-28T16:26:25.820Z,26.70
2018-07-28T16:29:00.941Z,26.60
2018-07-28T16:31:36.093Z,26.40
2018-07-28T16:34:11.902Z,26.40
2018-07-28T16:36:47.028Z,26.40
2018-07-28T16:39:22.133Z,26.40
2018-07-28T16:41:57.290Z,26.30
2018-07-28T16:44:32.497Z,26.20
2018-07-28T16:47:07.968Z,26.10
2018-07-28T16:49:43.082Z,26.00
2018-07-28T16:52:18.248Z,25.90
2018-07-28T16:54:53.298Z,25.90
2018-07-28T16:57:28.943Z,25.80
2018-07-28T17:00:04.080Z,25.80
2018-07-28T17:02:39.481Z,25.80
2018-07-28T17:05:14.507Z,25.70
2018-07-28T17:07:49.895Z,25.70
2018-07-28T17:10:25.037Z,25.60
2018-07-28T17:13:00.239Z,25.60
2018-07-28T17:15:35.472Z,25.40
2018-07-28T17:18:10.855Z,25.40
2018-07-28T17:20:46.047Z,25.30
2018-07-28T17:23:21.146Z,25.30
2018-07-28T17:25:56.223Z,25.30
2018-07-28T17:28:31.239Z,25.40
2018-07-28T17:31:06.650Z,25.30
2018-07-28T17:33:41.834Z,25.30
2018-07-28T17:36:16.942Z,25.20
2018-07-28T17:38:52.159Z,25.10
2018-07-28T17:41:27.307Z,25.00
2018-07-28T17:44:02.520Z,25.00
2018-07-28T17:46:37.860Z,25.00
2018-07-28T17:49:13.220Z,24.90
2018-07-28T17:51:48.491Z,24.80
2018-07-28T17:54:23.889Z,24.70
2018-07-28T17:56:59.182Z,24.60
2018-07-28T17:59:34.295Z,24.60
2018-07-28T18:02:09.608Z,24.60
2018-07-28T18:04:44.647Z,24.50
2018-07-28T18:07:19.931Z,24.40
2018-07-28T18:09:55.104Z,24.30
2018-07-28T18:12:30.455Z,24.30
2018-07-28T18:15:06.150Z,24.20
2018-07-28T18:17:41.402Z,24.20
2018-07-28T18:20:16.491Z,24.10
2018-07-28T18:22:51.787Z,24.10
2018-07-28T18:25:27.095Z,24.00
2018-07-28T18:28:02.534Z,23.90
2018-07-28T18:30:37.708Z,23.80
2018-07-28T18:35:47.619Z,23.70
2018-07-28T18:40:57.506Z,23.60
2018-07-28T18:43:32.459Z,23.60
2018-07-28T18:46:07.602Z,23.50
2018-07-28T18:48:42.736Z,23.50
2018-07-28T18:51:18.048Z,23.40
2018-07-28T18:53:53.220Z,23.40
2018-07-28T18:56:28.450Z,23.40
2018-07-28T18:59:03.615Z,23.40
2018-07-28T19:01:38.960Z,23.40
2018-07-28T19:04:14.142Z,23.40
2018-07-28T19:06:49.295Z,23.40
2018-07-28T19:10:01.499Z,23.30
2018-07-28T19:12:42.138Z,23.30
2018-07-28T19:15:17.199Z,23.20
2018-07-28T19:17:57.614Z,23.20
2018-07-28T19:20:32.668Z,23.20
2018-07-28T19:23:13.126Z,23.20
2018-07-28T19:25:48.198Z,23.20
2018-07-28T19:28:28.615Z,23.20
2018-07-28T19:31:03.766Z,23.20
2018-07-28T19:33:38.897Z,23.20
2018-07-28T19:36:19.313Z,23.10
2018-07-28T19:38:54.552Z,23.10
2018-07-28T19:44:15.728Z,23.10
2018-07-28T19:46:50.827Z,23.10
2018-07-28T19:49:25.979Z,23.00
2018-07-28T19:52:01.182Z,23.00
2018-07-28T19:54:36.347Z,23.00
2018-07-28T19:57:11.551Z,22.90
2018-07-28T19:59:46.759Z,22.90
2018-07-28T20:02:21.993Z,22.90
2018-07-28T20:04:57.276Z,22.80
2018-07-28T20:07:32.386Z,22.80
2018-07-28T20:10:07.666Z,22.80
2018-07-28T20:12:42.703Z,22.70
2018-07-28T20:15:17.994Z,22.70
2018-07-28T20:17:53.035Z,22.70
2018-07-28T20:20:28.387Z,22.70
2018-07-28T20:23:03.626Z,22.60
2018-07-28T20:25:38.775Z,22.60
2018-07-28T20:28:14.079Z,22.60
2018-07-28T20:30:49.235Z,22.50
2018-07-28T20:33:24.339Z,22.50
2018-07-28T20:35:59.547Z,22.50
2018-07-28T20:38:34.858Z,22.40
2018-07-28T20:41:09.980Z,22.40
2018-07-28T20:43:44.992Z,22.40
2018-07-28T20:46:20.131Z,22.40
2018-07-28T20:48:55.301Z,22.30
2018-07-28T20:51:30.515Z,22.30
2018-07-28T20:54:05.936Z,22.30
2018-07-28T20:56:41.091Z,22.30
2018-07-28T20:59:16.464Z,22.30
2018-07-28T21:01:51.613Z,22.30
2018-07-28T21:04:26.820Z,22.30
2018-07-28T21:07:01.844Z,22.20
2018-07-28T21:09:37.060Z,22.20
2018-07-28T21:12:12.226Z,22.20
2018-07-28T21:14:47.458Z,22.20
2018-07-28T21:17:22.691Z,22.20
2018-07-28T21:19:57.691Z,22.20
2018-07-28T21:22:32.766Z,22.30
2018-07-28T21:25:08.131Z,22.30
2018-07-28T21:27:43.358Z,22.30
2018-07-28T21:30:18.691Z,22.20
2018-07-28T21:32:53.903Z,22.10
2018-07-28T21:35:29.135Z,22.10
2018-07-28T21:38:04.233Z,22.10
2018-07-28T21:40:39.333Z,22.10
2018-07-28T21:43:14.553Z,22.10
2018-07-28T21:45:49.670Z,22.00
2018-07-28T21:48:24.896Z,22.00
2018-07-28T21:51:00.084Z,22.00
2018-07-28T21:53:35.335Z,22.00
2018-07-28T21:56:10.388Z,22.00
2018-07-28T21:58:45.667Z,22.00
2018-07-28T22:01:20.848Z,22.00
2018-07-28T22:03:56.068Z,22.00
2018-07-28T22:06:32.181Z,21.90
2018-07-28T22:09:07.631Z,21.90
2018-07-28T22:11:42.859Z,21.80
2018-07-28T22:14:18.021Z,21.90
2018-07-28T22:16:53.235Z,21.80
2018-07-28T22:19:28.311Z,21.80
2018-07-28T22:22:03.591Z,21.80
2018-07-28T22:24:38.634Z,21.80
2018-07-28T22:27:13.936Z,21.80
2018-07-28T22:29:49.134Z,21.90
2018-07-28T22:32:24.174Z,21.80
2018-07-28T22:34:59.212Z,21.90
2018-07-28T22:37:34.255Z,21.90
2018-07-28T22:40:09.493Z,21.90
2018-07-28T22:42:47.713Z,21.80
2018-07-28T22:45:22.795Z,21.80
2018-07-28T22:47:58.102Z,21.80
2018-07-28T22:50:33.063Z,21.70
2018-07-28T22:53:08.886Z,21.70
2018-07-28T22:55:43.974Z,21.70
2018-07-28T22:58:19.200Z,21.60
2018-07-28T23:00:54.322Z,21.60
2018-07-28T23:03:29.479Z,21.50
2018-07-28T23:06:04.514Z,21.60
2018-07-28T23:08:39.610Z,21.50
2018-07-28T23:11:15.182Z,21.60
2018-07-28T23:13:50.331Z,21.60
2018-07-28T23:16:25.566Z,21.60
2018-07-28T23:19:00.865Z,21.50
2018-07-28T23:21:35.948Z,21.50
2018-07-28T23:24:11.007Z,21.60
2018-07-28T23:26:45.946Z,21.60
2018-07-28T23:29:21.251Z,21.50
2018-07-28T23:31:56.314Z,21.50
2018-07-28T23:34:31.574Z,21.40
2018-07-28T23:37:06.634Z,21.40
2018-07-28T23:39:41.722Z,21.40
2018-07-28T23:42:16.854Z,21.30
2018-07-28T23:44:51.942Z,21.30
2018-07-28T23:47:27.463Z,21.40
2018-07-28T23:50:02.716Z,21.40
2018-07-28T23:52:37.815Z,21.50
2018-07-28T23:55:12.919Z,21.50
2018-07-28T23:57:48.556Z,21.50
